sensor_id;sensor_type;location;lat;lon;timestamp;pressure;altitude;pressure_sealevel;temperature;humidity
55311;BME280;41173;52.634;-8.666;2023-12-28T06:20:36;98907.00;;;6.43;100.00
55311;BME280;41173;52.634;-8.666;2023-12-28T06:23:02;98900.78;;;6.78;100.00
55311;BME280;41173;52.634;-8.666;2023-12-28T06:25:27;98879.84;;;6.87;100.00
55311;BME280;41173;52.634;-8.666;2023-12-28T06:27:53;98871.06;;;7.02;100.00
55311;BME280;41173;52.634;-8.666;2023-12-28T06:30:18;98863.19;;;7.08;100.00
55311;BME280;41173;52.634;-8.666;2023-12-28T06:32:44;98864.88;;;7.22;100.00
55311;BME280;41173;52.634;-8.666;2023-12-28T06:35:10;98853.50;;;7.20;100.00
55311;BME280;41173;52.634;-8.666;2023-12-28T06:37:35;98852.63;;;7.24;100.00
55311;BME280;41173;52.634;-8.666;2023-12-28T06:40:01;98849.13;;;7.26;100.00
55311;BME280;41173;52.634;-8.666;2023-12-28T06:42:26;98837.78;;;7.27;100.00
55311;BME280;41173;52.634;-8.666;2023-12-28T06:44:52;98832.47;;;7.40;100.00
55311;BME280;41173;52.634;-8.666;2023-12-28T06:47:17;98833.31;;;7.42;100.00
55311;BME280;41173;52.634;-8.666;2023-12-28T06:49:43;98823.75;;;7.41;100.00
55311;BME280;41173;52.634;-8.666;2023-12-28T06:52:08;98818.47;;;7.44;100.00
55311;BME280;41173;52.634;-8.666;2023-12-28T06:54:34;98812.38;;;7.43;100.00
55311;BME280;41173;52.634;-8.666;2023-12-28T06:56:59;98825.44;;;7.48;100.00
55311;BME280;41173;52.634;-8.666;2023-12-28T06:59:24;98826.28;;;7.51;100.00
55311;BME280;41173;52.634;-8.666;2023-12-28T07:01:50;98815.69;;;7.64;100.00
55311;BME280;41173;52.634;-8.666;2023-12-28T07:04:15;98802.63;;;7.62;100.00
55311;BME280;41173;52.634;-8.666;2023-12-28T07:06:41;98820.91;;;7.70;100.00
55311;BME280;41173;52.634;-8.666;2023-12-28T07:09:06;98807.72;;;7.78;100.00
55311;BME280;41173;52.634;-8.666;2023-12-28T07:11:32;98802.50;;;7.75;100.00
55311;BME280;41173;52.634;-8.666;2023-12-28T07:13:57;98800.75;;;7.77;100.00
55311;BME280;41173;52.634;-8.666;2023-12-28T07:16:22;98805.91;;;7.84;100.00
55311;BME280;41173;52.634;-8.666;2023-12-28T07:18:48;98796.19;;;7.96;100.00
55311;BME280;41173;52.634;-8.666;2023-12-28T07:21:13;98788.28;;;8.03;100.00
55311;BME280;41173;52.634;-8.666;2023-12-28T07:23:39;98788.97;;;8.18;100.00
55311;BME280;41173;52.634;-8.666;2023-12-28T07:26:04;98786.19;;;8.33;100.00
55311;BME280;41173;52.634;-8.666;2023-12-28T07:28:30;98799.25;;;8.38;100.00
55311;BME280;41173;52.634;-8.666;2023-12-28T07:30:55;98783.47;;;8.44;100.00
55311;BME280;41173;52.634;-8.666;2023-12-28T07:33:21;98788.69;;;8.41;100.00
55311;BME280;41173;52.634;-8.666;2023-12-28T07:35:46;98803.56;;;8.43;100.00
55311;BME280;41173;52.634;-8.666;2023-12-28T07:38:12;98788.66;;;8.50;100.00
55311;BME280;41173;52.634;-8.666;2023-12-28T07:40:38;98790.28;;;8.57;100.00
55311;BME280;41173;52.634;-8.666;2023-12-28T07:43:03;98806.84;;;8.61;100.00
55311;BME280;41173;52.634;-8.666;2023-12-28T07:45:29;98807.78;;;8.58;100.00
55311;BME280;41173;52.634;-8.666;2023-12-28T07:47:55;98805.97;;;8.63;100.00
55311;BME280;41173;52.634;-8.666;2023-12-28T07:50:21;98808.59;;;8.63;100.00
55311;BME280;41173;52.634;-8.666;2023-12-28T07:52:47;98829.47;;;8.68;100.00
55311;BME280;41173;52.634;-8.666;2023-12-28T07:55:13;98842.59;;;8.66;100.00
55311;BME280;41173;52.634;-8.666;2023-12-28T07:57:38;98826.06;;;8.60;100.00
55311;BME280;41173;52.634;-8.666;2023-12-28T08:00:04;98827.84;;;8.59;100.00
55311;BME280;41173;52.634;-8.666;2023-12-28T08:02:30;98831.22;;;8.69;100.00
55311;BME280;41173;52.634;-8.666;2023-12-28T08:04:56;98828.50;;;8.75;100.00
55311;BME280;41173;52.634;-8.666;2023-12-28T08:07:21;98833.72;;;8.80;100.00
55311;BME280;41173;52.634;-8.666;2023-12-28T08:09:46;98825.81;;;8.81;100.00
55311;BME280;41173;52.634;-8.666;2023-12-28T08:12:12;98840.69;;;8.81;100.00
55311;BME280;41173;52.634;-8.666;2023-12-28T08:14:37;98858.16;;;8.82;100.00
55311;BME280;41173;52.634;-8.666;2023-12-28T08:17:03;98864.28;;;8.82;100.00
55311;BME280;41173;52.634;-8.666;2023-12-28T08:19:29;98920.34;;;8.72;100.00
55311;BME280;41173;52.634;-8.666;2023-12-28T08:21:54;98917.00;;;8.58;100.00
55311;BME280;41173;52.634;-8.666;2023-12-28T08:24:20;98904.88;;;8.47;100.00
55311;BME280;41173;52.634;-8.666;2023-12-28T08:26:45;98878.72;;;8.38;100.00
55311;BME280;41173;52.634;-8.666;2023-12-28T08:29:11;98896.34;;;8.25;100.00
55311;BME280;41173;52.634;-8.666;2023-12-28T08:31:36;98905.09;;;8.20;100.00
55311;BME280;41173;52.634;-8.666;2023-12-28T08:34:02;98893.78;;;8.16;100.00
55311;BME280;41173;52.634;-8.666;2023-12-28T08:36:27;98881.63;;;8.10;100.00
55311;BME280;41173;52.634;-8.666;2023-12-28T08:38:53;98881.59;;;8.17;100.00
55311;BME280;41173;52.634;-8.666;2023-12-28T08:41:19;98885.06;;;8.17;100.00
55311;BME280;41173;52.634;-8.666;2023-12-28T08:43:45;98905.16;;;8.17;100.00
55311;BME280;41173;52.634;-8.666;2023-12-28T08:46:11;98904.28;;;8.13;100.00
55311;BME280;41173;52.634;-8.666;2023-12-28T08:48:36;98914.84;;;8.08;100.00
55311;BME280;41173;52.634;-8.666;2023-12-28T08:51:01;98922.69;;;8.08;100.00
55311;BME280;41173;52.634;-8.666;2023-12-28T08:53:27;98934.13;;;8.00;100.00
55311;BME280;41173;52.634;-8.666;2023-12-28T08:55:52;98929.72;;;8.02;100.00
55311;BME280;41173;52.634;-8.666;2023-12-28T08:58:17;98932.31;;;8.05;100.00
55311;BME280;41173;52.634;-8.666;2023-12-28T09:00:43;98943.75;;;7.93;100.00
55311;BME280;41173;52.634;-8.666;2023-12-28T09:03:10;98948.06;;;8.03;100.00
55311;BME280;41173;52.634;-8.666;2023-12-28T09:05:35;98954.16;;;8.02;100.00
55311;BME280;41173;52.634;-8.666;2023-12-28T09:08:01;98962.03;;;8.01;100.00
55311;BME280;41173;52.634;-8.666;2023-12-28T09:10:26;98957.72;;;7.95;100.00
55311;BME280;41173;52.634;-8.666;2023-12-28T09:12:52;98969.88;;;8.01;100.00
55311;BME280;41173;52.634;-8.666;2023-12-28T09:15:17;98962.84;;;8.07;100.00
55311;BME280;41173;52.634;-8.666;2023-12-28T09:17:43;98948.94;;;7.99;100.00
55311;BME280;41173;52.634;-8.666;2023-12-28T09:20:08;98967.25;;;8.05;100.00
55311;BME280;41173;52.634;-8.666;2023-12-28T09:22:34;98975.19;;;7.93;100.00
55311;BME280;41173;52.634;-8.666;2023-12-28T09:25:00;98974.34;;;7.93;100.00
55311;BME280;41173;52.634;-8.666;2023-12-28T09:27:26;98972.56;;;7.98;100.00
55311;BME280;41173;52.634;-8.666;2023-12-28T09:29:51;98969.03;;;7.97;100.00
55311;BME280;41173;52.634;-8.666;2023-12-28T09:32:16;98979.59;;;7.91;100.00
55311;BME280;41173;52.634;-8.666;2023-12-28T09:34:42;98984.75;;;7.96;100.00
55311;BME280;41173;52.634;-8.666;2023-12-28T09:37:08;98985.66;;;7.96;100.00
55311;BME280;41173;52.634;-8.666;2023-12-28T09:39:33;98977.78;;;7.98;100.00
55311;BME280;41173;52.634;-8.666;2023-12-28T09:42:04;98986.41;;;8.09;100.00
55311;BME280;41173;52.634;-8.666;2023-12-28T09:44:32;98985.56;;;8.07;100.00
55311;BME280;41173;52.634;-8.666;2023-12-28T09:46:57;99002.19;;;8.03;100.00
55311;BME280;41173;52.634;-8.666;2023-12-28T09:49:23;99002.97;;;8.13;100.00
55311;BME280;41173;52.634;-8.666;2023-12-28T09:51:49;99008.19;;;8.22;100.00
55311;BME280;41173;52.634;-8.666;2023-12-28T09:54:14;99016.81;;;8.33;100.00
55311;BME280;41173;52.634;-8.666;2023-12-28T09:56:40;99034.28;;;8.31;100.00
55311;BME280;41173;52.634;-8.666;2023-12-28T09:59:07;99037.72;;;8.42;100.00
55311;BME280;41173;52.634;-8.666;2023-12-28T10:01:34;99032.50;;;8.38;100.00
55311;BME280;41173;52.634;-8.666;2023-12-28T10:03:59;99023.84;;;8.28;100.00
55311;BME280;41173;52.634;-8.666;2023-12-28T10:06:25;99038.72;;;8.24;100.00
55311;BME280;41173;52.634;-8.666;2023-12-28T10:08:51;99047.38;;;8.33;100.00
55311;BME280;41173;52.634;-8.666;2023-12-28T10:11:17;99048.25;;;8.32;100.00
55311;BME280;41173;52.634;-8.666;2023-12-28T10:13:43;99066.56;;;8.39;100.00
55311;BME280;41173;52.634;-8.666;2023-12-28T10:16:10;99062.19;;;8.44;100.00
55311;BME280;41173;52.634;-8.666;2023-12-28T10:18:36;99045.56;;;8.47;100.00
55311;BME280;41173;52.634;-8.666;2023-12-28T10:21:02;99049.91;;;8.50;100.00
55311;BME280;41173;52.634;-8.666;2023-12-28T10:23:28;99053.44;;;8.42;100.00
55311;BME280;41173;52.634;-8.666;2023-12-28T10:25:56;99056.03;;;8.45;100.00
55311;BME280;41173;52.634;-8.666;2023-12-28T10:28:21;99049.03;;;8.49;100.00
55311;BME280;41173;52.634;-8.666;2023-12-28T10:30:47;99055.06;;;8.62;100.00
55311;BME280;41173;52.634;-8.666;2023-12-28T10:33:13;99056.75;;;8.64;100.00
55311;BME280;41173;52.634;-8.666;2023-12-28T10:35:39;99054.09;;;8.71;100.00
55311;BME280;41173;52.634;-8.666;2023-12-28T10:38:07;99054.91;;;8.77;100.00
55311;BME280;41173;52.634;-8.666;2023-12-28T10:40:36;99057.50;;;8.80;100.00
55311;BME280;41173;52.634;-8.666;2023-12-28T10:43:06;99058.31;;;8.85;100.00
55311;BME280;41173;52.634;-8.666;2023-12-28T10:45:34;99068.78;;;8.92;100.00
55311;BME280;41173;52.634;-8.666;2023-12-28T10:48:08;99072.25;;;8.91;100.00
55311;BME280;41173;52.634;-8.666;2023-12-28T10:50:41;99082.81;;;8.88;100.00
55311;BME280;41173;52.634;-8.666;2023-12-28T11:01:31;99109.78;;;9.02;100.00
55311;BME280;41173;52.634;-8.666;2023-12-28T11:04:02;99122.00;;;9.03;100.00
55311;BME280;41173;52.634;-8.666;2023-12-28T11:06:35;99126.38;;;9.01;100.00
55311;BME280;41173;52.634;-8.666;2023-12-28T11:09:00;99129.81;;;9.09;100.00
55311;BME280;41173;52.634;-8.666;2023-12-28T11:11:26;99135.88;;;9.16;100.00
55311;BME280;41173;52.634;-8.666;2023-12-28T11:13:54;99133.28;;;9.14;100.00
55311;BME280;41173;52.634;-8.666;2023-12-28T11:16:22;99141.22;;;9.05;100.00
55311;BME280;41173;52.634;-8.666;2023-12-28T11:18:47;99141.13;;;9.14;100.00
55311;BME280;41173;52.634;-8.666;2023-12-28T11:21:13;99163.91;;;9.12;100.00
55311;BME280;41173;52.634;-8.666;2023-12-28T11:23:40;99164.75;;;9.17;100.00
55311;BME280;41173;52.634;-8.666;2023-12-28T11:26:21;99175.28;;;9.11;100.00
55311;BME280;41173;52.634;-8.666;2023-12-28T11:28:47;99183.09;;;9.17;100.00
55311;BME280;41173;52.634;-8.666;2023-12-28T11:31:18;99190.97;;;9.17;100.00
55311;BME280;41173;52.634;-8.666;2023-12-28T11:33:48;99194.44;;;9.22;100.00
55311;BME280;41173;52.634;-8.666;2023-12-28T11:36:22;99200.53;;;9.28;100.00
55311;BME280;41173;52.634;-8.666;2023-12-28T11:38:52;99208.41;;;9.25;100.00
55311;BME280;41173;52.634;-8.666;2023-12-28T11:41:20;99202.22;;;9.33;100.00
55311;BME280;41173;52.634;-8.666;2023-12-28T11:43:51;99208.31;;;9.32;100.00
55311;BME280;41173;52.634;-8.666;2023-12-28T11:46:17;99210.06;;;9.35;100.00
55311;BME280;41173;52.634;-8.666;2023-12-28T11:48:42;99217.88;;;9.43;100.00
55311;BME280;41173;52.634;-8.666;2023-12-28T11:51:08;99209.03;;;9.53;100.00
55311;BME280;41173;52.634;-8.666;2023-12-28T11:53:33;99214.25;;;9.56;100.00
55311;BME280;41173;52.634;-8.666;2023-12-28T11:56:00;99215.91;;;9.63;100.00
55311;BME280;41173;52.634;-8.666;2023-12-28T11:58:27;99215.06;;;9.64;100.00
55311;BME280;41173;52.634;-8.666;2023-12-28T12:00:53;99240.38;;;9.70;100.00
55311;BME280;41173;52.634;-8.666;2023-12-28T12:03:18;99218.53;;;9.63;100.00
55311;BME280;41173;52.634;-8.666;2023-12-28T12:05:45;99226.31;;;9.72;100.00
55311;BME280;41173;52.634;-8.666;2023-12-28T12:08:10;99216.72;;;9.73;100.00
55311;BME280;41173;52.634;-8.666;2023-12-28T12:10:42;99229.81;;;9.74;100.00
55311;BME280;41173;52.634;-8.666;2023-12-28T12:13:08;99230.63;;;9.81;100.00
55311;BME280;41173;52.634;-8.666;2023-12-28T12:15:34;99232.59;;;9.62;100.00
55311;BME280;41173;52.634;-8.666;2023-12-28T12:18:03;99235.22;;;9.60;100.00
55311;BME280;41173;52.634;-8.666;2023-12-28T12:20:29;99232.75;;;9.42;100.00
55311;BME280;41173;52.634;-8.666;2023-12-28T12:22:59;99230.16;;;9.36;100.00
55311;BME280;41173;52.634;-8.666;2023-12-28T12:25:24;99231.81;;;9.51;100.00
55311;BME280;41173;52.634;-8.666;2023-12-28T12:27:50;99228.34;;;9.46;100.00
55311;BME280;41173;52.634;-8.666;2023-12-28T12:30:15;99229.22;;;9.45;100.00
55311;BME280;41173;52.634;-8.666;2023-12-28T12:32:41;99226.66;;;9.40;100.00
55311;BME280;41173;52.634;-8.666;2023-12-28T12:35:09;99222.09;;;9.59;100.00
55311;BME280;41173;52.634;-8.666;2023-12-28T12:37:37;99235.22;;;9.59;100.00
55311;BME280;41173;52.634;-8.666;2023-12-28T12:40:04;99235.16;;;9.65;100.00
55311;BME280;41173;52.634;-8.666;2023-12-28T12:42:31;99228.13;;;9.69;100.00
55311;BME280;41173;52.634;-8.666;2023-12-28T12:44:57;99232.53;;;9.65;100.00
55311;BME280;41173;52.634;-8.666;2023-12-28T12:47:22;99222.84;;;9.72;100.00
55311;BME280;41173;52.634;-8.666;2023-12-28T12:49:51;99221.97;;;9.73;100.00
55311;BME280;41173;52.634;-8.666;2023-12-28T12:52:16;99220.19;;;9.75;100.00
55311;BME280;41173;52.634;-8.666;2023-12-28T12:54:42;99233.31;;;9.73;100.00
55311;BME280;41173;52.634;-8.666;2023-12-28T12:57:08;99217.59;;;9.72;100.00
55311;BME280;41173;52.634;-8.666;2023-12-28T12:59:33;99237.72;;;9.71;100.00
55311;BME280;41173;52.634;-8.666;2023-12-28T13:02:00;99228.88;;;9.83;100.00
55311;BME280;41173;52.634;-8.666;2023-12-28T13:04:26;99233.16;;;9.89;100.00
55311;BME280;41173;52.634;-8.666;2023-12-28T13:06:52;99234.94;;;9.87;100.00
55311;BME280;41173;52.634;-8.666;2023-12-28T13:09:17;99239.34;;;9.86;100.00
55311;BME280;41173;52.634;-8.666;2023-12-28T13:11:43;99246.34;;;9.84;100.00
55311;BME280;41173;52.634;-8.666;2023-12-28T13:14:09;99247.22;;;9.86;100.00
55311;BME280;41173;52.634;-8.666;2023-12-28T13:16:34;99256.03;;;9.81;100.00
55311;BME280;41173;52.634;-8.666;2023-12-28T13:18:59;99248.13;;;9.84;100.00
55311;BME280;41173;52.634;-8.666;2023-12-28T13:21:25;99250.84;;;9.76;100.00
55311;BME280;41173;52.634;-8.666;2023-12-28T13:23:50;99253.47;;;9.73;100.00
55311;BME280;41173;52.634;-8.666;2023-12-28T13:26:16;99238.56;;;9.75;100.00
55311;BME280;41173;52.634;-8.666;2023-12-28T13:28:42;99242.09;;;9.72;100.00
55311;BME280;41173;52.634;-8.666;2023-12-28T13:31:08;99244.75;;;9.71;100.00
55311;BME280;41173;52.634;-8.666;2023-12-28T13:33:33;99245.66;;;9.65;100.00
55311;BME280;41173;52.634;-8.666;2023-12-28T13:35:58;99253.47;;;9.73;100.00
55311;BME280;41173;52.634;-8.666;2023-12-28T13:38:24;99243.94;;;9.64;100.00
55311;BME280;41173;52.634;-8.666;2023-12-28T13:40:49;99244.78;;;9.65;100.00
55311;BME280;41173;52.634;-8.666;2023-12-28T13:43:15;99224.63;;;9.68;100.00
55311;BME280;41173;52.634;-8.666;2023-12-28T13:45:40;99241.19;;;9.75;100.00
55311;BME280;41173;52.634;-8.666;2023-12-28T13:48:06;99252.56;;;9.77;100.00
55311;BME280;41173;52.634;-8.666;2023-12-28T13:50:32;99244.75;;;9.69;100.00
55311;BME280;41173;52.634;-8.666;2023-12-28T13:52:57;99235.94;;;9.75;100.00
55311;BME280;41173;52.634;-8.666;2023-12-28T13:55:23;99244.69;;;9.74;100.00
55311;BME280;41173;52.634;-8.666;2023-12-28T13:57:48;99246.56;;;9.66;100.00
55311;BME280;41173;52.634;-8.666;2023-12-28T14:00:14;99249.13;;;9.69;100.00
55311;BME280;41173;52.634;-8.666;2023-12-28T14:02:40;99273.66;;;9.68;100.00
55311;BME280;41173;52.634;-8.666;2023-12-28T14:05:06;99240.38;;;9.70;100.00
55311;BME280;41173;52.634;-8.666;2023-12-28T14:07:31;99259.63;;;9.69;100.00
55311;BME280;41173;52.634;-8.666;2023-12-28T14:09:56;99273.66;;;9.68;100.00
55311;BME280;41173;52.634;-8.666;2023-12-28T14:12:22;99256.19;;;9.64;100.00
55311;BME280;41173;52.634;-8.666;2023-12-28T14:14:47;99266.72;;;9.62;100.00
55311;BME280;41173;52.634;-8.666;2023-12-28T14:17:13;99258.88;;;9.56;100.00
55311;BME280;41173;52.634;-8.666;2023-12-28T14:19:38;99259.81;;;9.53;100.00
55311;BME280;41173;52.634;-8.666;2023-12-28T14:22:05;99253.66;;;9.54;100.00
55311;BME280;41173;52.634;-8.666;2023-12-28T14:24:31;99270.22;;;9.63;100.00
55311;BME280;41173;52.634;-8.666;2023-12-28T14:26:57;99273.78;;;9.54;100.00
55311;BME280;41173;52.634;-8.666;2023-12-28T14:29:22;99300.09;;;9.48;100.00
55311;BME280;41173;52.634;-8.666;2023-12-28T14:31:48;99270.25;;;9.56;100.00
55311;BME280;41173;52.634;-8.666;2023-12-28T14:34:14;99277.25;;;9.57;100.00
55311;BME280;41173;52.634;-8.666;2023-12-28T14:36:40;99275.56;;;9.52;100.00
55311;BME280;41173;52.634;-8.666;2023-12-28T14:39:07;99287.94;;;9.36;100.00
55311;BME280;41173;52.634;-8.666;2023-12-28T14:41:37;99275.78;;;9.24;100.00
55311;BME280;41173;52.634;-8.666;2023-12-28T14:44:03;99285.47;;;9.17;100.00
55311;BME280;41173;52.634;-8.666;2023-12-28T14:46:29;99265.41;;;9.10;100.00
55311;BME280;41173;52.634;-8.666;2023-12-28T14:48:55;99285.47;;;9.17;100.00
55311;BME280;41173;52.634;-8.666;2023-12-28T14:51:20;99260.09;;;9.12;100.00
55311;BME280;41173;52.634;-8.666;2023-12-28T14:53:47;99268.03;;;9.10;100.00
55311;BME280;41173;52.634;-8.666;2023-12-28T14:56:12;99281.25;;;8.95;100.00
55311;BME280;41173;52.634;-8.666;2023-12-28T14:58:38;99241.91;;;8.92;100.00
55311;BME280;41173;52.634;-8.666;2023-12-28T15:01:05;99262.03;;;8.90;100.00
55311;BME280;41173;52.634;-8.666;2023-12-28T15:03:30;99265.53;;;8.89;100.00
55311;BME280;41173;52.634;-8.666;2023-12-28T15:05:56;99266.44;;;8.88;100.00
55311;BME280;41173;52.634;-8.666;2023-12-28T15:08:23;99258.56;;;8.81;100.00
55311;BME280;41173;52.634;-8.666;2023-12-28T15:10:49;99266.44;;;8.84;100.00
55311;BME280;41173;52.634;-8.666;2023-12-28T15:13:15;99262.91;;;8.89;100.00
55311;BME280;41173;52.634;-8.666;2023-12-28T15:15:42;99274.25;;;8.94;100.00
55311;BME280;41173;52.634;-8.666;2023-12-28T15:18:08;99287.34;;;8.98;100.00
55311;BME280;41173;52.634;-8.666;2023-12-28T15:20:34;99286.44;;;9.01;100.00
55311;BME280;41173;52.634;-8.666;2023-12-28T15:23:00;99289.91;;;9.03;100.00
55311;BME280;41173;52.634;-8.666;2023-12-28T15:25:25;99275.00;;;9.08;100.00
55311;BME280;41173;52.634;-8.666;2023-12-28T15:27:50;99288.09;;;9.16;100.00
55311;BME280;41173;52.634;-8.666;2023-12-28T15:30:16;99304.69;;;9.18;100.00
55311;BME280;41173;52.634;-8.666;2023-12-28T15:32:41;99310.84;;;9.14;100.00
55311;BME280;41173;52.634;-8.666;2023-12-28T15:35:11;99301.31;;;8.99;100.00
55311;BME280;41173;52.634;-8.666;2023-12-28T15:37:37;99292.59;;;8.97;100.00
55311;BME280;41173;52.634;-8.666;2023-12-28T15:40:03;99304.88;;;8.89;100.00
55311;BME280;41173;52.634;-8.666;2023-12-28T15:42:29;99308.34;;;8.91;100.00
55311;BME280;41173;52.634;-8.666;2023-12-28T15:44:55;99317.06;;;8.94;100.00
55311;BME280;41173;52.634;-8.666;2023-12-28T15:47:20;99301.38;;;8.91;100.00
55311;BME280;41173;52.634;-8.666;2023-12-28T15:49:45;99329.34;;;8.89;100.00
55311;BME280;41173;52.634;-8.666;2023-12-28T15:52:11;99318.91;;;8.75;100.00
55311;BME280;41173;52.634;-8.666;2023-12-28T15:54:36;99320.66;;;8.79;100.00
55311;BME280;41173;52.634;-8.666;2023-12-28T15:57:02;99318.97;;;8.69;100.00
55311;BME280;41173;52.634;-8.666;2023-12-28T15:59:28;99333.81;;;8.72;100.00
55311;BME280;41173;52.634;-8.666;2023-12-28T16:01:53;99348.69;;;8.68;100.00
55311;BME280;41173;52.634;-8.666;2023-12-28T16:04:18;99336.47;;;8.65;100.00
55311;BME280;41173;52.634;-8.666;2023-12-28T16:06:44;99353.06;;;8.69;100.00
55311;BME280;41173;52.634;-8.666;2023-12-28T16:09:09;99354.84;;;8.61;100.00
55311;BME280;41173;52.634;-8.666;2023-12-28T16:11:36;99347.81;;;8.66;100.00
55311;BME280;41173;52.634;-8.666;2023-12-28T16:14:03;99347.88;;;8.58;100.00
55311;BME280;41173;52.634;-8.666;2023-12-28T16:16:28;99353.06;;;8.61;100.00
55311;BME280;41173;52.634;-8.666;2023-12-28T16:18:54;99359.22;;;8.59;100.00
55311;BME280;41173;52.634;-8.666;2023-12-28T16:21:20;99370.56;;;8.64;100.00
55311;BME280;41173;52.634;-8.666;2023-12-28T16:23:46;99362.75;;;8.52;100.00
55311;BME280;41173;52.634;-8.666;2023-12-28T16:26:11;99364.50;;;8.46;100.00
55311;BME280;41173;52.634;-8.666;2023-12-28T16:28:38;99374.09;;;8.46;100.00
55311;BME280;41173;52.634;-8.666;2023-12-28T16:31:03;99372.34;;;8.42;100.00
55311;BME280;41173;52.634;-8.666;2023-12-28T16:33:29;99381.97;;;8.47;100.00
55311;BME280;41173;52.634;-8.666;2023-12-28T16:35:54;99395.94;;;8.40;100.00
55311;BME280;41173;52.634;-8.666;2023-12-28T16:38:21;99406.41;;;8.37;100.00
55311;BME280;41173;52.634;-8.666;2023-12-28T16:40:47;99411.69;;;8.29;100.00
55311;BME280;41173;52.634;-8.666;2023-12-28T16:43:13;99414.31;;;8.23;100.00
55311;BME280;41173;52.634;-8.666;2023-12-28T16:45:39;99416.06;;;8.23;100.00
55311;BME280;41173;52.634;-8.666;2023-12-28T16:48:05;99409.94;;;8.33;100.00
55311;BME280;41173;52.634;-8.666;2023-12-28T16:50:31;99394.22;;;8.18;100.00
55311;BME280;41173;52.634;-8.666;2023-12-28T16:52:56;99409.06;;;8.23;100.00
55311;BME280;41173;52.634;-8.666;2023-12-28T16:55:22;99410.81;;;8.18;100.00
55311;BME280;41173;52.634;-8.666;2023-12-28T16:57:51;99413.44;;;8.23;100.00
55311;BME280;41173;52.634;-8.666;2023-12-28T17:00:16;99413.44;;;8.21;100.00
55311;BME280;41173;52.634;-8.666;2023-12-28T17:02:42;99399.47;;;8.24;100.00
55311;BME280;41173;52.634;-8.666;2023-12-28T17:05:09;99406.44;;;8.25;100.00
55311;BME280;41173;52.634;-8.666;2023-12-28T17:07:35;99410.78;;;8.34;100.00
55311;BME280;41173;52.634;-8.666;2023-12-28T17:10:01;99426.53;;;8.27;100.00
55311;BME280;41173;52.634;-8.666;2023-12-28T17:15:00;99454.47;;;8.32;100.00
55311;BME280;41173;52.634;-8.666;2023-12-28T17:17:27;99444.88;;;8.32;100.00
55311;BME280;41173;52.634;-8.666;2023-12-28T17:19:53;99454.47;;;8.32;100.00
55311;BME280;41173;52.634;-8.666;2023-12-28T17:22:19;99449.25;;;8.36;100.00
55311;BME280;41173;52.634;-8.666;2023-12-28T17:25:07;99469.38;;;8.45;100.00
55311;BME280;41173;52.634;-8.666;2023-12-28T17:27:42;99471.97;;;8.33;100.00
55311;BME280;41173;52.634;-8.666;2023-12-28T17:30:15;99474.56;;;8.39;100.00
55311;BME280;41173;52.634;-8.666;2023-12-28T17:32:41;99471.94;;;8.39;100.00
55311;BME280;41173;52.634;-8.666;2023-12-28T17:35:07;99478.94;;;8.41;100.00
55311;BME280;41173;52.634;-8.666;2023-12-28T17:37:33;99484.19;;;8.40;100.00
55311;BME280;41173;52.634;-8.666;2023-12-28T17:39:59;99497.28;;;8.37;100.00
55311;BME280;41173;52.634;-8.666;2023-12-28T17:42:29;99490.31;;;8.53;100.00
55311;BME280;41173;52.634;-8.666;2023-12-28T17:44:58;99494.69;;;8.54;100.00
55311;BME280;41173;52.634;-8.666;2023-12-28T17:47:33;99514.81;;;8.49;100.00
55311;BME280;41173;52.634;-8.666;2023-12-28T17:50:01;99521.75;;;8.42;100.00
55311;BME280;41173;52.634;-8.666;2023-12-28T17:52:28;99497.31;;;8.41;100.00
55311;BME280;41173;52.634;-8.666;2023-12-28T17:54:57;99504.31;;;8.47;100.00
55311;BME280;41173;52.634;-8.666;2023-12-28T17:57:23;99508.69;;;8.43;100.00
55311;BME280;41173;52.634;-8.666;2023-12-28T17:59:49;99512.19;;;8.45;100.00
55311;BME280;41173;52.634;-8.666;2023-12-28T18:02:14;99502.56;;;8.47;100.00
55311;BME280;41173;52.634;-8.666;2023-12-28T18:04:41;99515.69;;;8.44;100.00
55311;BME280;41173;52.634;-8.666;2023-12-28T18:07:07;99515.69;;;8.43;100.00
55311;BME280;41173;52.634;-8.666;2023-12-28T18:09:32;99518.25;;;8.38;100.00
55311;BME280;41173;52.634;-8.666;2023-12-28T18:12:01;99520.88;;;8.34;100.00
55311;BME280;41173;52.634;-8.666;2023-12-28T18:14:27;99536.59;;;8.32;100.00
55311;BME280;41173;52.634;-8.666;2023-12-28T18:16:52;99546.22;;;8.27;100.00
55311;BME280;41173;52.634;-8.666;2023-12-28T18:19:17;99534.88;;;8.28;100.00
55311;BME280;41173;52.634;-8.666;2023-12-28T18:21:43;99533.09;;;8.27;100.00
55311;BME280;41173;52.634;-8.666;2023-12-28T18:24:11;99537.47;;;8.11;100.00
55311;BME280;41173;52.634;-8.666;2023-12-28T18:26:37;99540.09;;;8.19;100.00
55311;BME280;41173;52.634;-8.666;2023-12-28T18:29:02;99538.34;;;8.16;100.00
55311;BME280;41173;52.634;-8.666;2023-12-28T18:31:27;99542.72;;;8.17;100.00
55311;BME280;41173;52.634;-8.666;2023-12-28T18:33:53;99535.72;;;8.15;100.00
55311;BME280;41173;52.634;-8.666;2023-12-28T18:36:18;99547.06;;;8.09;100.00
55311;BME280;41173;52.634;-8.666;2023-12-28T18:38:44;99546.22;;;8.12;100.00
55311;BME280;41173;52.634;-8.666;2023-12-28T18:41:11;99551.47;;;8.21;100.00
55311;BME280;41173;52.634;-8.666;2023-12-28T18:43:36;99558.47;;;8.22;100.00
55311;BME280;41173;52.634;-8.666;2023-12-28T18:46:02;99559.31;;;8.27;100.00
55311;BME280;41173;52.634;-8.666;2023-12-28T18:48:28;99554.06;;;8.28;100.00
55311;BME280;41173;52.634;-8.666;2023-12-28T18:50:53;99566.31;;;8.20;100.00
55311;BME280;41173;52.634;-8.666;2023-12-28T18:53:19;99563.69;;;8.22;100.00
55311;BME280;41173;52.634;-8.666;2023-12-28T18:55:44;99566.31;;;8.22;100.00
55311;BME280;41173;52.634;-8.666;2023-12-28T18:58:11;99566.31;;;8.16;100.00
55311;BME280;41173;52.634;-8.666;2023-12-28T19:00:37;99581.13;;;8.07;100.00
55311;BME280;41173;52.634;-8.666;2023-12-28T19:03:03;99573.28;;;8.09;100.00
55311;BME280;41173;52.634;-8.666;2023-12-28T19:05:32;99562.78;;;8.01;100.00
55311;BME280;41173;52.634;-8.666;2023-12-28T19:07:58;99555.78;;;8.00;100.00
55311;BME280;41173;52.634;-8.666;2023-12-28T19:10:23;99558.41;;;8.00;100.00
55311;BME280;41173;52.634;-8.666;2023-12-28T19:12:49;99574.16;;;8.03;100.00
55311;BME280;41173;52.634;-8.666;2023-12-28T19:15:14;99585.53;;;8.12;100.00